createdAt,value
2017-07-04T00:00:20.035Z,1012.11
2017-07-04T00:01:21.348Z,1012.1
2017-07-04T00:02:22.731Z,1012.08
2017-07-04T00:03:24.019Z,1012.08
2017-07-04T00:04:25.320Z,1012.06
2017-07-04T00:05:26.684Z,1012.02
2017-07-04T00:06:27.955Z,1012.07
2017-07-04T00:07:29.230Z,1012.01
2017-07-04T00:08:30.519Z,1012.07
2017-07-04T00:09:31.783Z,1012.06
2017-07-04T00:10:33.081Z,1012.04
2017-07-04T00:11:34.406Z,1012.06
2017-07-04T00:12:35.699Z,1012.08
2017-07-04T00:13:36.975Z,1012.06
2017-07-04T00:14:38.242Z,1012.05
2017-07-04T00:15:39.560Z,1012.05
2017-07-04T00:16:40.845Z,1012.04
2017-07-04T00:17:42.103Z,1012.02
2017-07-04T00:18:43.360Z,1012.04
2017-07-04T00:19:44.780Z,1012.03
2017-07-04T00:20:46.011Z,1012.02
2017-07-04T00:21:47.302Z,1012.03
2017-07-04T00:22:48.589Z,1012.04
2017-07-04T00:23:49.920Z,1012.02
2017-07-04T00:24:51.193Z,1012.02
2017-07-04T00:25:52.529Z,1012.01
2017-07-04T00:26:53.765Z,1011.99
2017-07-04T00:27:55.066Z,1011.98
2017-07-04T00:28:56.337Z,1011.93
2017-07-04T00:29:57.635Z,1011.93
2017-07-04T00:30:58.893Z,1011.93
2017-07-04T00:32:00.148Z,1011.91
2017-07-04T00:33:01.473Z,1011.9
2017-07-04T00:34:02.730Z,1011.92
2017-07-04T00:35:03.967Z,1011.92
2017-07-04T00:36:05.242Z,1011.94
2017-07-04T00:37:06.539Z,1011.96
2017-07-04T00:38:07.808Z,1011.93
2017-07-04T00:39:09.111Z,1011.98
2017-07-04T00:40:10.368Z,1011.98
2017-07-04T00:41:11.624Z,1012.02
2017-07-04T00:42:12.877Z,1012.03
2017-07-04T00:43:14.147Z,1012.04
2017-07-04T00:44:15.437Z,1012.01
2017-07-04T00:45:16.704Z,1012.03
2017-07-04T00:46:17.994Z,1012.05
2017-07-04T00:47:19.274Z,1012.02
2017-07-04T00:48:20.551Z,1012.01
2017-07-04T00:49:21.791Z,1012.03
2017-07-04T00:50:23.071Z,1012.02
2017-07-04T00:51:24.316Z,1012
2017-07-04T00:52:25.588Z,1011.98
2017-07-04T00:53:26.849Z,1011.97
2017-07-04T00:54:28.135Z,1012.02
2017-07-04T00:55:29.426Z,1011.97
2017-07-04T00:56:30.683Z,1012
2017-07-04T00:57:31.966Z,1012.01
2017-07-04T00:58:33.263Z,1012.03
2017-07-04T00:59:34.562Z,1012.02
2017-07-04T01:00:35.794Z,1012.03
2017-07-04T01:01:37.077Z,1012.02
2017-07-04T01:02:38.357Z,1012
2017-07-04T01:03:39.620Z,1011.98
2017-07-04T01:04:40.947Z,1011.94
2017-07-04T01:05:42.184Z,1011.98
2017-07-04T01:06:43.467Z,1011.98
2017-07-04T01:07:44.900Z,1011.96
2017-07-04T01:08:46.295Z,1012
2017-07-04T01:09:47.594Z,1011.99
2017-07-04T01:10:48.835Z,1011.99
2017-07-04T01:11:50.122Z,1011.98
2017-07-04T01:12:51.395Z,1011.97
2017-07-04T01:13:52.704Z,1012
2017-07-04T01:14:53.986Z,1012.02
2017-07-04T01:15:55.224Z,1012.01
2017-07-04T01:16:56.615Z,1012.02
2017-07-04T01:17:57.907Z,1012
2017-07-04T01:18:59.240Z,1011.98
2017-07-04T01:20:00.500Z,1012.02
2017-07-04T01:21:01.760Z,1011.98
2017-07-04T01:22:03.025Z,1011.95
2017-07-04T01:23:04.387Z,1012.01
2017-07-04T01:24:05.640Z,1012.04
2017-07-04T01:25:06.899Z,1012
2017-07-04T01:26:08.195Z,1012
2017-07-04T01:27:09.479Z,1011.97
2017-07-04T01:28:10.793Z,1012.01
2017-07-04T01:29:12.057Z,1011.95
2017-07-04T01:30:13.383Z,1011.93
2017-07-04T01:31:14.705Z,1011.94
2017-07-04T01:32:16.001Z,1011.92
2017-07-04T01:33:17.379Z,1011.96
2017-07-04T01:34:18.704Z,1011.92
2017-07-04T01:35:19.918Z,1011.96
2017-07-04T01:36:21.193Z,1011.92
2017-07-04T01:37:22.494Z,1011.93
2017-07-04T01:38:23.777Z,1011.95
2017-07-04T01:39:25.017Z,1011.9
2017-07-04T01:40:26.335Z,1011.97
2017-07-04T01:41:27.604Z,1011.97
2017-07-04T01:42:28.915Z,1011.96
2017-07-04T01:43:30.190Z,1011.93
2017-07-04T01:44:31.443Z,1011.98
2017-07-04T01:45:32.816Z,1011.98
2017-07-04T01:46:34.075Z,1011.96
2017-07-04T01:47:35.366Z,1011.96
2017-07-04T01:48:36.691Z,1011.98
2017-07-04T01:49:38.063Z,1011.96
2017-07-04T01:50:39.265Z,1011.94
2017-07-04T01:51:40.604Z,1011.97
2017-07-04T01:52:41.861Z,1011.99
2017-07-04T01:53:43.154Z,1011.99
2017-07-04T01:54:44.424Z,1011.97
2017-07-04T01:55:45.662Z,1012.01
2017-07-04T01:56:46.991Z,1011.99
2017-07-04T01:57:48.387Z,1012.06
2017-07-04T01:58:49.650Z,1012.06
2017-07-04T01:59:50.993Z,1012.08
2017-07-04T02:00:52.244Z,1012.07
2017-07-04T02:01:53.521Z,1012.05
2017-07-04T02:02:54.761Z,1012.01
2017-07-04T02:03:56.055Z,1012.05
2017-07-04T02:04:57.341Z,1012.07
2017-07-04T02:05:58.641Z,1012.07
2017-07-04T02:06:59.888Z,1012.11
2017-07-04T02:08:01.181Z,1012.1
2017-07-04T02:09:02.438Z,1012.09
2017-07-04T02:10:03.721Z,1012.06
2017-07-04T02:11:05.000Z,1012.05
2017-07-04T02:12:06.326Z,1012.04
2017-07-04T02:13:07.560Z,1012.04
2017-07-04T02:14:08.938Z,1012.02
2017-07-04T02:15:10.216Z,1012.01
2017-07-04T02:16:11.535Z,1011.99
2017-07-04T02:17:12.824Z,1012
2017-07-04T02:18:14.084Z,1012.03
2017-07-04T02:19:15.385Z,1012.08
2017-07-04T02:20:16.651Z,1012.05
2017-07-04T02:21:17.983Z,1012.04
2017-07-04T02:22:19.221Z,1012.01
2017-07-04T02:23:20.480Z,1012
2017-07-04T02:24:21.772Z,1011.97
2017-07-04T02:25:23.020Z,1011.97
2017-07-04T02:26:24.391Z,1011.95
2017-07-04T02:27:25.668Z,1011.95
2017-07-04T02:28:26.903Z,1011.91
2017-07-04T02:29:28.164Z,1011.89
2017-07-04T02:30:29.526Z,1011.9
2017-07-04T02:31:30.806Z,1011.9
2017-07-04T02:32:32.069Z,1011.88
2017-07-04T02:33:33.340Z,1011.92
2017-07-04T02:34:34.607Z,1011.94
2017-07-04T02:35:35.930Z,1011.93
2017-07-04T02:36:37.199Z,1011.94
2017-07-04T02:37:38.571Z,1011.97
2017-07-04T02:38:39.871Z,1011.94
2017-07-04T02:39:41.134Z,1011.95
2017-07-04T02:40:42.398Z,1011.93
2017-07-04T02:41:43.792Z,1011.93
2017-07-04T02:42:45.120Z,1011.92
2017-07-04T02:43:46.421Z,1011.97
2017-07-04T02:44:47.658Z,1011.98
2017-07-04T02:45:48.930Z,1011.99
2017-07-04T02:46:50.240Z,1012.04
2017-07-04T02:47:51.527Z,1012.06
2017-07-04T02:48:52.914Z,1012.04
2017-07-04T02:49:54.134Z,1012.02
2017-07-04T02:50:55.397Z,1012.05
2017-07-04T02:51:56.671Z,1012.07
2017-07-04T02:52:57.963Z,1012.08
2017-07-04T02:53:59.225Z,1012.09
2017-07-04T02:55:00.528Z,1012.09
2017-07-04T02:56:01.790Z,1012.07
2017-07-04T02:57:03.042Z,1012.09
2017-07-04T02:58:04.301Z,1012.08
2017-07-04T02:59:05.608Z,1012.1
2017-07-04T03:00:06.933Z,1012.11
2017-07-04T03:01:08.172Z,1012.11
2017-07-04T03:02:09.421Z,1012.12
2017-07-04T03:03:10.674Z,1012.13
2017-07-04T03:04:11.955Z,1012.11
2017-07-04T03:05:13.274Z,1012.09
2017-07-04T03:06:14.596Z,1012.09
2017-07-04T03:07:15.895Z,1012.1
2017-07-04T03:08:17.106Z,1012.1
2017-07-04T03:09:18.370Z,1012.12
2017-07-04T03:10:19.666Z,1012.07
2017-07-04T03:11:20.925Z,1012.1
2017-07-04T03:12:22.216Z,1012.08
2017-07-04T03:13:23.521Z,1012.06
2017-07-04T03:14:24.764Z,1012.07
2017-07-04T03:15:26.015Z,1012.1
2017-07-04T03:16:27.336Z,1012.12
2017-07-04T03:17:28.681Z,1012.1
2017-07-04T03:18:29.944Z,1012.17
2017-07-04T03:19:31.178Z,1012.14
2017-07-04T03:20:32.489Z,1012.13
2017-07-04T03:21:33.786Z,1012.16
2017-07-04T03:22:35.118Z,1012.16
2017-07-04T03:23:36.376Z,1012.18
2017-07-04T03:24:37.644Z,1012.17
2017-07-04T03:25:39.007Z,1012.18
2017-07-04T03:26:40.272Z,1012.2
2017-07-04T03:27:41.702Z,1012.15
2017-07-04T03:28:43.014Z,1012.16
2017-07-04T03:29:44.288Z,1012.21
2017-07-04T03:30:45.632Z,1012.2
2017-07-04T03:31:46.873Z,1012.21
2017-07-04T03:32:48.174Z,1012.21
2017-07-04T03:33:49.538Z,1012.25
2017-07-04T03:34:50.878Z,1012.21
2017-07-04T03:35:52.239Z,1012.27
2017-07-04T03:36:53.518Z,1012.26
2017-07-04T03:37:54.779Z,1012.28
2017-07-04T03:38:56.051Z,1012.23
2017-07-04T03:39:57.366Z,1012.3
2017-07-04T03:40:58.600Z,1012.29
2017-07-04T03:41:59.837Z,1012.34
2017-07-04T03:43:01.136Z,1012.33
2017-07-04T03:44:02.425Z,1012.36
2017-07-04T03:45:03.802Z,1012.36
2017-07-04T03:46:05.135Z,1012.36
2017-07-04T03:47:06.456Z,1012.37
2017-07-04T03:48:07.707Z,1012.42
2017-07-04T03:49:08.996Z,1012.4
2017-07-04T03:50:10.275Z,1012.38
2017-07-04T03:51:11.600Z,1012.42
2017-07-04T03:52:12.965Z,1012.44
2017-07-04T03:53:14.305Z,1012.42
2017-07-04T03:54:15.583Z,1012.45
2017-07-04T03:55:16.896Z,1012.42
2017-07-04T03:56:18.205Z,1012.45
2017-07-04T03:57:19.644Z,1012.46
2017-07-04T03:58:20.986Z,1012.5
2017-07-04T03:59:22.280Z,1012.56
2017-07-04T04:00:23.745Z,1012.54
2017-07-04T04:01:25.117Z,1012.6
2017-07-04T04:02:26.416Z,1012.54
2017-07-04T04:03:27.706Z,1012.57
2017-07-04T04:04:29.020Z,1012.57
2017-07-04T04:05:30.285Z,1012.54
2017-07-04T04:06:31.551Z,1012.54
2017-07-04T04:07:32.844Z,1012.52
2017-07-04T04:08:34.143Z,1012.51
2017-07-04T04:09:35.370Z,1012.42
2017-07-04T04:10:36.755Z,1012.42
2017-07-04T04:11:38.017Z,1012.4
2017-07-04T04:12:39.316Z,1012.37
2017-07-04T04:13:40.780Z,1012.39
2017-07-04T04:14:42.069Z,1012.4
2017-07-04T04:15:43.386Z,1012.43
2017-07-04T04:16:44.674Z,1012.39
2017-07-04T04:17:45.933Z,1012.38
2017-07-04T04:18:47.214Z,1012.38
2017-07-04T04:19:48.559Z,1012.37
2017-07-04T04:20:49.800Z,1012.4
2017-07-04T04:21:51.041Z,1012.39
2017-07-04T04:22:52.306Z,1012.37
2017-07-04T04:23:53.559Z,1012.38
2017-07-04T04:24:54.898Z,1012.42
2017-07-04T04:25:56.159Z,1012.41
2017-07-04T04:26:57.446Z,1012.47
2017-07-04T04:27:58.707Z,1012.51
2017-07-04T04:28:59.954Z,1012.55
2017-07-04T04:30:01.265Z,1012.55
2017-07-04T04:31:02.524Z,1012.58
2017-07-04T04:32:03.767Z,1012.61
2017-07-04T04:33:05.000Z,1012.63
2017-07-04T04:34:06.240Z,1012.66
2017-07-04T04:35:07.502Z,1012.69
2017-07-04T04:36:08.770Z,1012.7
2017-07-04T04:37:10.016Z,1012.74
2017-07-04T04:38:11.315Z,1012.76
2017-07-04T04:39:12.679Z,1012.79
2017-07-04T04:40:13.943Z,1012.76
2017-07-04T04:41:15.218Z,1012.75
2017-07-04T04:42:16.498Z,1012.77
2017-07-04T04:43:17.782Z,1012.77
2017-07-04T04:44:19.227Z,1012.8
2017-07-04T04:45:20.520Z,1012.81
2017-07-04T04:46:21.769Z,1012.78
2017-07-04T04:47:23.008Z,1012.78
2017-07-04T04:48:24.278Z,1012.76
2017-07-04T04:49:25.601Z,1012.78
2017-07-04T04:50:26.755Z,1012.79
2017-07-04T04:51:28.034Z,1012.79
2017-07-04T04:52:29.293Z,1012.8
2017-07-04T04:53:30.627Z,1012.78
2017-07-04T04:54:32.032Z,1012.81
2017-07-04T04:55:33.267Z,1012.82
2017-07-04T04:56:34.560Z,1012.75
2017-07-04T04:57:35.809Z,1012.75
2017-07-04T04:58:37.071Z,1012.75
2017-07-04T04:59:38.331Z,1012.75
2017-07-04T05:00:39.610Z,1012.74
2017-07-04T05:01:40.913Z,1012.77
2017-07-04T05:02:42.188Z,1012.75
2017-07-04T05:03:43.453Z,1012.8
2017-07-04T05:04:44.705Z,1012.78
2017-07-04T05:05:46.020Z,1012.76
2017-07-04T05:06:47.286Z,1012.77
2017-07-04T05:07:48.687Z,1012.78
2017-07-04T05:08:50.006Z,1012.85
2017-07-04T05:09:51.267Z,1012.84
2017-07-04T05:10:52.520Z,1012.84
2017-07-04T05:11:53.867Z,1012.82
2017-07-04T05:12:55.256Z,1012.83
2017-07-04T05:13:56.631Z,1012.86
2017-07-04T05:14:57.892Z,1012.87
2017-07-04T05:15:59.165Z,1012.87
2017-07-04T05:17:00.542Z,1012.88
2017-07-04T05:18:01.809Z,1012.84
2017-07-04T05:19:03.086Z,1012.86
2017-07-04T05:20:04.361Z,1012.85
2017-07-04T05:21:05.610Z,1012.86
2017-07-04T05:22:06.907Z,1012.82
2017-07-04T05:23:08.219Z,1012.83
2017-07-04T05:24:09.447Z,1012.87
2017-07-04T05:25:10.729Z,1012.89
2017-07-04T05:26:11.975Z,1012.84
2017-07-04T05:27:13.257Z,1012.87
2017-07-04T05:28:14.505Z,1012.89
2017-07-04T05:29:15.757Z,1012.91
2017-07-04T05:30:17.015Z,1012.92
2017-07-04T05:31:18.366Z,1012.86
2017-07-04T05:32:19.669Z,1012.86
2017-07-04T05:33:20.878Z,1012.83
2017-07-04T05:34:22.169Z,1012.81
2017-07-04T05:35:23.479Z,1012.77
2017-07-04T05:36:24.908Z,1012.75
2017-07-04T05:37:26.200Z,1012.75
2017-07-04T05:38:27.483Z,1012.76
2017-07-04T05:39:28.734Z,1012.76
2017-07-04T05:40:29.984Z,1012.77
2017-07-04T05:41:31.279Z,1012.8
2017-07-04T05:42:32.517Z,1012.8
2017-07-04T05:43:33.829Z,1012.82
2017-07-04T05:44:35.106Z,1012.8
2017-07-04T05:45:36.417Z,1012.79
2017-07-04T05:46:37.710Z,1012.79
2017-07-04T05:47:39.227Z,1012.85
2017-07-04T05:48:40.459Z,1012.83
2017-07-04T05:49:41.688Z,1012.86
2017-07-04T05:50:42.977Z,1012.86
2017-07-04T05:51:44.267Z,1012.84
2017-07-04T05:52:45.628Z,1012.88
2017-07-04T05:53:46.972Z,1012.92
2017-07-04T05:54:48.240Z,1012.92
2017-07-04T05:55:49.511Z,1012.91
2017-07-04T05:56:50.786Z,1012.93
2017-07-04T05:57:52.061Z,1012.92
2017-07-04T05:58:53.382Z,1012.87
2017-07-04T05:59:54.665Z,1012.95
2017-07-04T06:00:55.908Z,1012.92
2017-07-04T06:01:57.199Z,1012.96
2017-07-04T06:02:58.464Z,1012.95
2017-07-04T06:03:59.843Z,1012.99
2017-07-04T06:05:01.084Z,1013
2017-07-04T06:06:02.469Z,1013.03
2017-07-04T06:07:03.798Z,1013.04
2017-07-04T06:08:05.038Z,1013.07
2017-07-04T06:09:06.280Z,1013.04
2017-07-04T06:10:07.614Z,1013.08
2017-07-04T06:11:08.940Z,1013.09
2017-07-04T06:12:10.198Z,1013.12
2017-07-04T06:13:11.486Z,1013.08
2017-07-04T06:14:12.746Z,1013.09
2017-07-04T06:15:14.026Z,1013.14
2017-07-04T06:16:15.355Z,1013.14
2017-07-04T06:17:16.639Z,1013.15
2017-07-04T06:18:17.891Z,1013.16
2017-07-04T06:19:19.158Z,1013.18
2017-07-04T06:20:20.419Z,1013.23
2017-07-04T06:21:21.701Z,1013.2
2017-07-04T06:22:22.988Z,1013.2
2017-07-04T06:23:24.276Z,1013.21
2017-07-04T06:24:25.566Z,1013.2
2017-07-04T06:25:26.865Z,1013.24
2017-07-04T06:26:28.104Z,1013.21
2017-07-04T06:27:29.403Z,1013.22
2017-07-04T06:28:30.690Z,1013.28
2017-07-04T06:29:31.958Z,1013.25
2017-07-04T06:30:33.209Z,1013.28
2017-07-04T06:31:34.492Z,1013.28
2017-07-04T06:32:35.752Z,1013.26
2017-07-04T06:33:37.195Z,1013.28
2017-07-04T06:34:38.469Z,1013.3
2017-07-04T06:35:39.719Z,1013.26
2017-07-04T06:36:41.024Z,1013.3
2017-07-04T06:37:42.287Z,1013.33
2017-07-04T06:38:43.605Z,1013.35
2017-07-04T06:39:45.003Z,1013.32
2017-07-04T06:40:46.301Z,1013.33
2017-07-04T06:41:47.585Z,1013.37
2017-07-04T06:42:48.830Z,1013.41
2017-07-04T06:43:50.097Z,1013.41
2017-07-04T06:44:51.448Z,1013.45
2017-07-04T06:45:52.689Z,1013.49
2017-07-04T06:46:53.978Z,1013.44
2017-07-04T06:47:55.213Z,1013.46
2017-07-04T06:48:56.499Z,1013.44
2017-07-04T06:49:57.785Z,1013.47
2017-07-04T06:50:59.184Z,1013.47
2017-07-04T06:52:00.471Z,1013.5
2017-07-04T06:53:01.724Z,1013.5
2017-07-04T06:54:02.982Z,1013.56
2017-07-04T06:55:04.248Z,1013.57
2017-07-04T06:56:05.509Z,1013.56
2017-07-04T06:57:06.792Z,1013.5
2017-07-04T06:58:08.074Z,1013.49
2017-07-04T06:59:09.460Z,1013.48
2017-07-04T07:00:10.717Z,1013.55
2017-07-04T07:01:11.978Z,1013.53
2017-07-04T07:02:13.313Z,1013.53
2017-07-04T07:03:14.655Z,1013.53
2017-07-04T07:04:15.943Z,1013.56
2017-07-04T07:05:17.197Z,1013.54
2017-07-04T07:06:18.452Z,1013.57
2017-07-04T07:07:19.779Z,1013.58
2017-07-04T07:08:31.434Z,1013.55
2017-07-04T07:09:32.805Z,1013.57
2017-07-04T07:10:34.077Z,1013.59
2017-07-04T07:11:35.377Z,1013.61
2017-07-04T07:12:36.675Z,1013.58
2017-07-04T07:13:37.935Z,1013.59
2017-07-04T07:14:39.193Z,1013.61
2017-07-04T07:15:40.483Z,1013.67
2017-07-04T07:16:41.783Z,1013.7
2017-07-04T07:17:43.103Z,1013.66
2017-07-04T07:18:44.377Z,1013.68
2017-07-04T07:19:45.625Z,1013.67
2017-07-04T07:20:46.893Z,1013.69
2017-07-04T07:21:48.149Z,1013.74
2017-07-04T07:22:49.551Z,1013.75
2017-07-04T07:23:50.763Z,1013.78
2017-07-04T07:24:52.013Z,1013.77
2017-07-04T07:25:53.307Z,1013.77
2017-07-04T07:26:54.581Z,1013.79
2017-07-04T07:27:55.849Z,1013.8
2017-07-04T07:28:57.131Z,1013.77
2017-07-04T07:29:58.395Z,1013.82
2017-07-04T07:30:59.653Z,1013.83
2017-07-04T07:32:00.960Z,1013.78
2017-07-04T07:33:02.246Z,1013.81
2017-07-04T07:34:03.516Z,1013.8
2017-07-04T07:35:04.847Z,1013.85
2017-07-04T07:36:06.163Z,1013.89
2017-07-04T07:37:07.395Z,1013.88
2017-07-04T07:38:08.729Z,1013.93
2017-07-04T07:39:09.987Z,1013.9
2017-07-04T07:40:11.238Z,1013.89
2017-07-04T07:41:12.532Z,1013.92
2017-07-04T07:42:13.776Z,1013.92
2017-07-04T07:43:15.190Z,1013.92
2017-07-04T07:44:16.514Z,1013.9
2017-07-04T07:45:17.847Z,1013.91
2017-07-04T07:46:19.104Z,1013.92
2017-07-04T07:47:20.552Z,1013.95
2017-07-04T07:48:21.817Z,1013.92
2017-07-04T07:49:23.101Z,1013.93
2017-07-04T07:50:24.442Z,1013.96
2017-07-04T07:51:25.729Z,1013.97
2017-07-04T07:52:27.171Z,1014.02
2017-07-04T07:53:28.533Z,1014
2017-07-04T07:54:29.800Z,1014.01
2017-07-04T07:55:31.071Z,1014.06
2017-07-04T07:56:32.317Z,1014.02
2017-07-04T07:57:33.594Z,1013.98
2017-07-04T07:58:34.964Z,1014.01
2017-07-04T07:59:36.229Z,1014.34
2017-07-04T08:00:37.484Z,1013.91
2017-07-04T08:01:38.761Z,1013.88
2017-07-04T08:02:40.038Z,1013.86
2017-07-04T08:03:41.391Z,1013.86
2017-07-04T08:04:42.737Z,1013.86
2017-07-04T08:05:43.974Z,1014.04
2017-07-04T08:06:45.235Z,1013.97
2017-07-04T08:07:46.542Z,1013.84
2017-07-04T08:08:47.838Z,1013.81
2017-07-04T08:09:49.138Z,1013.92
2017-07-04T08:10:50.420Z,1014.01
2017-07-04T08:11:51.676Z,1014.05
2017-07-04T08:12:52.952Z,1014.09
2017-07-04T08:13:54.225Z,1014.58
2017-07-04T08:14:55.523Z,1014.03
2017-07-04T08:15:56.830Z,1014.03
2017-07-04T08:16:58.075Z,1014.07
2017-07-04T08:17:59.329Z,1013.99
2017-07-04T08:19:00.659Z,1014.1
2017-07-04T08:20:01.970Z,1014.12
2017-07-04T08:21:03.265Z,1014.05
2017-07-04T08:22:04.558Z,1014.14
2017-07-04T08:23:05.845Z,1014.3
2017-07-04T08:24:07.092Z,1013.97
2017-07-04T08:25:08.398Z,1013.99
2017-07-04T08:26:09.674Z,1013.95
2017-07-04T08:27:11.161Z,1013.97
2017-07-04T08:28:12.464Z,1014.02
2017-07-04T08:29:13.733Z,1013.97
2017-07-04T08:30:15.030Z,1013.95
2017-07-04T08:31:16.315Z,1013.96
2017-07-04T08:32:17.648Z,1013.96
2017-07-04T08:33:19.031Z,1013.98
2017-07-04T08:34:20.337Z,1013.99
2017-07-04T08:35:21.612Z,1014.04
2017-07-04T08:36:22.882Z,1014.08
2017-07-04T08:37:24.163Z,1014.07
2017-07-04T08:38:25.448Z,1014.06
2017-07-04T08:39:26.819Z,1014.63
2017-07-04T08:40:28.128Z,1014.82
2017-07-04T08:41:29.443Z,1014.96
2017-07-04T08:42:30.759Z,1014.9
2017-07-04T08:43:31.992Z,1014.29
2017-07-04T08:44:33.255Z,1014.16
2017-07-04T08:45:34.554Z,1014.19
2017-07-04T08:46:35.840Z,1014.2
2017-07-04T08:47:37.098Z,1014.12
2017-07-04T08:48:38.357Z,1014.03
2017-07-04T08:49:39.621Z,1014.18
2017-07-04T08:50:40.913Z,1014.25
2017-07-04T08:51:42.195Z,1015
2017-07-04T08:52:43.481Z,1014.26
2017-07-04T08:53:44.757Z,1014.23
2017-07-04T08:54:45.997Z,1014.23
2017-07-04T08:55:47.396Z,1014.22
2017-07-04T08:56:48.677Z,1014.21
2017-07-04T08:57:49.938Z,1014.02
2017-07-04T08:58:51.245Z,1014.11
2017-07-04T08:59:52.494Z,1013.93
2017-07-04T09:00:53.787Z,1014.16
2017-07-04T09:01:55.050Z,1014.47
2017-07-04T09:02:56.341Z,1014.97
2017-07-04T09:03:57.602Z,1014.49
2017-07-04T09:04:58.886Z,1014.63
2017-07-04T09:06:00.219Z,1014.47
2017-07-04T09:07:01.467Z,1014.43
2017-07-04T09:08:02.812Z,1015.14
2017-07-04T09:09:04.094Z,1014.37
2017-07-04T09:10:05.377Z,1014.53
2017-07-04T09:11:06.664Z,1014.21
2017-07-04T09:12:07.915Z,1014.16
2017-07-04T09:13:09.265Z,1014.17
2017-07-04T09:14:10.714Z,1014.36
2017-07-04T09:15:11.971Z,1014.36
2017-07-04T09:16:13.250Z,1014.28
2017-07-04T09:17:14.630Z,1014.01
2017-07-04T09:18:15.863Z,1014.01
2017-07-04T09:19:17.136Z,1014.01
2017-07-04T09:20:18.395Z,1014.16
2017-07-04T09:21:19.658Z,1014.05
2017-07-04T09:22:20.927Z,1014.16
2017-07-04T09:23:22.229Z,1014.18
2017-07-04T09:24:23.674Z,1014.24
2017-07-04T09:25:24.954Z,1014.71
2017-07-04T09:26:26.246Z,1014.76
2017-07-04T09:27:27.527Z,1016.67
2017-07-04T09:28:28.932Z,1016.42
2017-07-04T09:29:30.140Z,1016.29
2017-07-04T09:30:31.428Z,1016.68
2017-07-04T09:31:32.767Z,1016.52
2017-07-04T09:32:34.050Z,1014.3
2017-07-04T09:33:35.319Z,1014.2
2017-07-04T09:34:36.674Z,1015.63
2017-07-04T09:35:37.895Z,1014.73
2017-07-04T09:36:39.230Z,1014.86
2017-07-04T09:37:40.501Z,1014.41
2017-07-04T09:38:41.769Z,1014.29
2017-07-04T09:39:43.113Z,1014.39
2017-07-04T09:40:44.423Z,1014.45
2017-07-04T09:41:45.714Z,1015
2017-07-04T09:42:46.965Z,1015.29
2017-07-04T09:43:48.232Z,1015.72
2017-07-04T09:44:49.561Z,1014.45
2017-07-04T09:45:50.844Z,1014.42
2017-07-04T09:46:52.117Z,1018.58
2017-07-04T09:47:53.420Z,1014.38
2017-07-04T09:48:54.763Z,1014.63
2017-07-04T09:49:56.028Z,1017.57
2017-07-04T09:50:57.319Z,1014.52
2017-07-04T09:51:58.599Z,1014.64
2017-07-04T09:52:59.841Z,1014.5
2017-07-04T09:54:01.175Z,1014.47
2017-07-04T09:55:02.453Z,1014.26
2017-07-04T09:56:03.754Z,1015.21
2017-07-04T09:57:05.087Z,1014.54
2017-07-04T09:58:06.346Z,1014.25
2017-07-04T09:59:07.625Z,1014.24
2017-07-04T10:00:08.921Z,1015.96
2017-07-04T10:01:10.195Z,1016.34
2017-07-04T10:02:11.468Z,1014.98
2017-07-04T10:03:12.763Z,1016.03
2017-07-04T10:04:13.995Z,1016.37
2017-07-04T10:05:15.425Z,1017.76
2017-07-04T10:06:16.876Z,1015.67
2017-07-04T10:07:18.189Z,1017.19
2017-07-04T10:08:19.496Z,1014.86
2017-07-04T10:09:20.783Z,1014.68
2017-07-04T10:10:22.042Z,1014.15
2017-07-04T10:11:23.353Z,1014.3
2017-07-04T10:12:24.619Z,1014.19
2017-07-04T10:13:25.923Z,1014.15
2017-07-04T10:14:27.232Z,1014.07
2017-07-04T10:15:28.579Z,1014.07
2017-07-04T10:16:29.821Z,1014.22
2017-07-04T10:17:31.112Z,1014.18
2017-07-04T10:18:32.402Z,1014.11
2017-07-04T10:19:33.796Z,1014.08
2017-07-04T10:20:35.143Z,1014.03
2017-07-04T10:21:36.449Z,1014.17
2017-07-04T10:22:37.776Z,1014.37
2017-07-04T10:23:38.975Z,1014.42
2017-07-04T10:24:40.248Z,1014.02
2017-07-04T10:25:41.562Z,1014.1
2017-07-04T10:26:42.886Z,1014.35
2017-07-04T10:27:44.147Z,1014.19
2017-07-04T10:28:45.404Z,1014.13
2017-07-04T10:29:46.695Z,1014.08
2017-07-04T10:30:48.055Z,1014.07
2017-07-04T10:31:49.348Z,1013.92
2017-07-04T10:32:50.640Z,1014.01
2017-07-04T10:33:51.987Z,1014.02
2017-07-04T10:34:53.337Z,1014.03
2017-07-04T10:35:54.628Z,1013.98
2017-07-04T10:36:55.909Z,1013.99
2017-07-04T10:37:57.191Z,1013.85
2017-07-04T10:38:58.469Z,1013.83
2017-07-04T10:39:59.758Z,1013.9
2017-07-04T10:41:01.051Z,1013.9
2017-07-04T10:42:02.317Z,1013.85
2017-07-04T10:43:03.739Z,1013.8
2017-07-04T10:44:05.071Z,1013.8
2017-07-04T10:45:06.311Z,1013.78
2017-07-04T10:46:07.581Z,1013.81
2017-07-04T10:47:08.933Z,1013.83
2017-07-04T10:48:10.201Z,1013.85
2017-07-04T10:49:11.524Z,1013.8
2017-07-04T10:50:12.808Z,1013.81
2017-07-04T10:51:14.095Z,1013.93
2017-07-04T10:52:15.377Z,1013.92
2017-07-04T10:53:16.637Z,1013.88
2017-07-04T10:54:17.936Z,1013.97
2017-07-04T10:55:19.314Z,1014.01
2017-07-04T10:56:20.596Z,1014.05
2017-07-04T10:57:21.856Z,1014.04
2017-07-04T10:58:23.312Z,1014.04
2017-07-04T10:59:24.609Z,1013.98
2017-07-04T11:00:25.878Z,1013.97
2017-07-04T11:01:27.142Z,1013.98
2017-07-04T11:02:28.488Z,1013.89
2017-07-04T11:03:29.747Z,1013.89
2017-07-04T11:04:31.058Z,1013.86
2017-07-04T11:05:32.291Z,1013.86
2017-07-04T11:06:33.578Z,1013.88
2017-07-04T11:07:34.870Z,1013.87
2017-07-04T11:08:36.169Z,1013.86
2017-07-04T11:09:37.509Z,1013.79
2017-07-04T11:10:38.880Z,1013.86
2017-07-04T11:11:40.111Z,1013.88
2017-07-04T11:12:41.390Z,1013.74
2017-07-04T11:13:42.655Z,1013.9
2017-07-04T11:14:44.000Z,1013.87
2017-07-04T11:15:45.445Z,1013.85
2017-07-04T11:16:46.742Z,1013.84
2017-07-04T11:17:48.029Z,1013.84
2017-07-04T11:18:49.323Z,1013.82
2017-07-04T11:19:50.569Z,1013.81
2017-07-04T11:20:51.854Z,1013.83
2017-07-04T11:21:53.283Z,1013.8
2017-07-04T11:22:54.550Z,1013.77
2017-07-04T11:23:55.809Z,1013.79
2017-07-04T11:24:57.091Z,1013.82
2017-07-04T11:25:58.424Z,1013.83
2017-07-04T11:26:59.776Z,1013.84
2017-07-04T11:28:01.084Z,1013.83
2017-07-04T11:29:02.322Z,1013.81
2017-07-04T11:30:03.617Z,1013.82
2017-07-04T11:31:04.899Z,1013.87
2017-07-04T11:32:06.212Z,1013.92
2017-07-04T11:33:07.498Z,1013.93
2017-07-04T11:34:08.826Z,1013.85
2017-07-04T11:35:10.050Z,1013.86
2017-07-04T11:36:11.358Z,1013.83
2017-07-04T11:37:12.640Z,1013.8
2017-07-04T11:38:13.898Z,1013.81
2017-07-04T11:39:15.197Z,1013.8
2017-07-04T11:40:16.467Z,1013.78
2017-07-04T11:41:17.760Z,1013.8
2017-07-04T11:42:19.068Z,1013.75
2017-07-04T11:43:20.346Z,1013.76
2017-07-04T11:44:21.702Z,1013.71
2017-07-04T11:45:22.993Z,1013.74
2017-07-04T11:46:24.276Z,1013.72
2017-07-04T11:47:25.551Z,1013.71
2017-07-04T11:48:26.867Z,1013.68
2017-07-04T11:49:28.233Z,1013.66
2017-07-04T11:50:29.647Z,1013.67
2017-07-04T11:51:30.949Z,1013.61
2017-07-04T11:52:32.218Z,1013.6
2017-07-04T11:53:33.501Z,1013.55
2017-07-04T11:54:34.852Z,1013.6
2017-07-04T11:55:36.137Z,1013.65
2017-07-04T11:56:37.439Z,1013.62
2017-07-04T11:57:38.777Z,1013.57
2017-07-04T11:58:40.009Z,1013.54
2017-07-04T11:59:41.329Z,1013.58
2017-07-04T12:00:42.598Z,1013.58
2017-07-04T12:01:43.901Z,1013.56
2017-07-04T12:02:45.188Z,1013.56
2017-07-04T12:03:46.465Z,1013.6
2017-07-04T12:04:47.712Z,1013.62
2017-07-04T12:05:49.005Z,1013.62
2017-07-04T12:06:50.280Z,1013.56
2017-07-04T12:07:51.665Z,1013.56
2017-07-04T12:08:52.948Z,1013.53
2017-07-04T12:09:54.212Z,1013.65
2017-07-04T12:10:55.464Z,1013.7
2017-07-04T12:11:56.738Z,1013.65
2017-07-04T12:12:58.028Z,1013.66
2017-07-04T12:13:59.415Z,1013.62
2017-07-04T12:15:00.698Z,1013.63
2017-07-04T12:16:01.965Z,1013.66
2017-07-04T12:17:03.277Z,1013.6
2017-07-04T12:18:04.548Z,1013.6
2017-07-04T12:19:05.908Z,1013.54
2017-07-04T12:20:07.155Z,1013.57
2017-07-04T12:21:08.457Z,1013.58
2017-07-04T12:22:09.789Z,1013.49
2017-07-04T12:23:11.164Z,1013.43
2017-07-04T12:24:12.413Z,1013.5
2017-07-04T12:25:13.684Z,1013.54